Jackson Center, Pennsylvania
Current Conditions -  °F | °C
As of 7:15 PM on Thursday 27 Nov 2014 (Local Time) from KFKL Reporting Station
Overcast Overcast  
Wind Chill: 16°   Ceiling: 1500
Heat Index: 27°   Visibility: 8mi
Dew Point: 21°   Wind: 12mph
Humidity: 80%   Direction: 260°W
Pressure: 30.13"   Gusts: NA
Location:  41.27°N, 80.14°W
Report Text: KFKL 280015Z AUTO 26010KT 8SM BKN015 OVC023 M03/M06 A3013 RMK AO1
Loading
Personal Weather Stations






























Interactive Weather Map New forecast layout! Learn more

10-Day Weather Forecast

Advertisements
Track Severe Weather on mobile